Terminal Aerodrome Forecast
Issued by NWS

Home | Current Version | Previous Version | Text Only | Print | Product List | Glossary On
Versions: 1 2 3 4 5 6 7 8 9 10 11 12 13 14 15 16 17 18 19 20 21 22 23 24 25 26 27 28 29 30 31 32 33 34 35 36 37 38 39 40 41 42 43 44 45 46 47 48 49 50
000
FTUS46 KEKA 210549
TAFACV
TAF
KACV 210549Z 2106/2206 12005KT P6SM BKN050 OVC250
     FM211000 12004KT P6SM SCT040 OVC250
     FM211400 14008KT P6SM SCT025 BKN120 OVC200
     FM211600 14008KT P6SM VCSH BKN020 OVC080
     FM211800 16010KT 6SM -RA OVC020
     FM212300 16012KT 4SM -RA BR OVC015
     FM220200 17015G22KT 2SM RA BR OVC015=

USA.gov is the U.S. government's official web portal to all federal, state and local government web resources and services.